sensor_id;sensor_type;location;lat;lon;timestamp;pressure;altitude;pressure_sealevel;temperature
62845;BMP280;48929;47.910;20.390;2023-04-06T00:01:57;99464.44;;;-2.32
62845;BMP280;48929;47.910;20.390;2023-04-06T00:04:28;99469.16;;;-2.29
62845;BMP280;48929;47.910;20.390;2023-04-06T00:06:57;99460.63;;;-2.28
62845;BMP280;48929;47.910;20.390;2023-04-06T00:09:26;99452.09;;;-2.27
62845;BMP280;48929;47.910;20.390;2023-04-06T00:11:55;99460.09;;;-2.23
62845;BMP280;48929;47.910;20.390;2023-04-06T00:14:25;99456.28;;;-2.13
62845;BMP280;48929;47.910;20.390;2023-04-06T00:16:55;99456.94;;;-2.04
62845;BMP280;48929;47.910;20.390;2023-04-06T00:19:24;99453.84;;;-1.99
62845;BMP280;48929;47.910;20.390;2023-04-06T00:21:54;99445.13;;;-1.97
62845;BMP280;48929;47.910;20.390;2023-04-06T00:24:24;99450.19;;;-1.97
62845;BMP280;48929;47.910;20.390;2023-04-06T00:26:54;99441.84;;;-1.97
62845;BMP280;48929;47.910;20.390;2023-04-06T00:29:23;99439.66;;;-2.01
62845;BMP280;48929;47.910;20.390;2023-04-06T00:31:52;99444.31;;;-2.04
62845;BMP280;48929;47.910;20.390;2023-04-06T00:34:21;99443.94;;;-2.01
62845;BMP280;48929;47.910;20.390;2023-04-06T00:36:49;99442.19;;;-2.01
62845;BMP280;48929;47.910;20.390;2023-04-06T00:39:21;99437.34;;;-2.02
62845;BMP280;48929;47.910;20.390;2023-04-06T00:41:51;99431.91;;;-1.99
62845;BMP280;48929;47.910;20.390;2023-04-06T00:44:22;99435.81;;;-1.96
62845;BMP280;48929;47.910;20.390;2023-04-06T00:46:51;99430.41;;;-1.93
62845;BMP280;48929;47.910;20.390;2023-04-06T00:49:20;99428.84;;;-1.94
62845;BMP280;48929;47.910;20.390;2023-04-06T00:51:50;99427.88;;;-1.93
62845;BMP280;48929;47.910;20.390;2023-04-06T00:54:21;99424.22;;;-1.91
62845;BMP280;48929;47.910;20.390;2023-04-06T00:56:49;99428.38;;;-1.83
62845;BMP280;48929;47.910;20.390;2023-04-06T00:59:20;99429.19;;;-1.76
62845;BMP280;48929;47.910;20.390;2023-04-06T01:01:50;99417.50;;;-1.77
62845;BMP280;48929;47.910;20.390;2023-04-06T01:04:20;99419.91;;;-1.69
62845;BMP280;48929;47.910;20.390;2023-04-06T01:06:49;99413.50;;;-1.65
62845;BMP280;48929;47.910;20.390;2023-04-06T01:09:20;99420.31;;;-1.65
62845;BMP280;48929;47.910;20.390;2023-04-06T01:11:49;99420.13;;;-1.64
62845;BMP280;48929;47.910;20.390;2023-04-06T01:14:18;99411.75;;;-1.64
62845;BMP280;48929;47.910;20.390;2023-04-06T01:16:47;99410.03;;;-1.64
62845;BMP280;48929;47.910;20.390;2023-04-06T01:19:15;99407.06;;;-1.67
62845;BMP280;48929;47.910;20.390;2023-04-06T01:21:44;99414.06;;;-1.70
62845;BMP280;48929;47.910;20.390;2023-04-06T01:24:15;99411.13;;;-1.73
62845;BMP280;48929;47.910;20.390;2023-04-06T01:26:45;99409.16;;;-1.78
62845;BMP280;48929;47.910;20.390;2023-04-06T01:29:15;99409.91;;;-1.84
62845;BMP280;48929;47.910;20.390;2023-04-06T01:31:43;99404.00;;;-1.91
62845;BMP280;48929;47.910;20.390;2023-04-06T01:34:12;99406.47;;;-1.97
62845;BMP280;48929;47.910;20.390;2023-04-06T01:36:40;99403.13;;;-2.05
62845;BMP280;48929;47.910;20.390;2023-04-06T01:39:10;99402.16;;;-2.10
62845;BMP280;48929;47.910;20.390;2023-04-06T01:42:00;99399.56;;;-2.17
62845;BMP280;48929;47.910;20.390;2023-04-06T01:44:29;99400.09;;;-2.21
62845;BMP280;48929;47.910;20.390;2023-04-06T01:46:57;99392.91;;;-2.24
62845;BMP280;48929;47.910;20.390;2023-04-06T01:49:30;99390.75;;;-2.27
62845;BMP280;48929;47.910;20.390;2023-04-06T01:51:59;99383.50;;;-2.30
62845;BMP280;48929;47.910;20.390;2023-04-06T01:54:29;99387.16;;;-2.33
62845;BMP280;48929;47.910;20.390;2023-04-06T01:57:01;99387.38;;;-2.35
62845;BMP280;48929;47.910;20.390;2023-04-06T01:59:29;99389.31;;;-2.37
62845;BMP280;48929;47.910;20.390;2023-04-06T02:01:59;99383.47;;;-2.37
62845;BMP280;48929;47.910;20.390;2023-04-06T02:04:28;99382.09;;;-2.40
62845;BMP280;48929;47.910;20.390;2023-04-06T02:06:57;99383.25;;;-2.42
62845;BMP280;48929;47.910;20.390;2023-04-06T02:09:29;99379.34;;;-2.45
62845;BMP280;48929;47.910;20.390;2023-04-06T02:11:58;99377.16;;;-2.48
62845;BMP280;48929;47.910;20.390;2023-04-06T02:14:30;99375.00;;;-2.51
62845;BMP280;48929;47.910;20.390;2023-04-06T02:16:59;99370.16;;;-2.52
62845;BMP280;48929;47.910;20.390;2023-04-06T02:19:28;99364.50;;;-2.54
62845;BMP280;48929;47.910;20.390;2023-04-06T02:21:57;99364.25;;;-2.59
62845;BMP280;48929;47.910;20.390;2023-04-06T02:24:28;99367.00;;;-2.61
62845;BMP280;48929;47.910;20.390;2023-04-06T02:27:05;99360.38;;;-2.62
62845;BMP280;48929;47.910;20.390;2023-04-06T02:29:36;99368.56;;;-2.60
62845;BMP280;48929;47.910;20.390;2023-04-06T02:32:05;99358.47;;;-2.60
62845;BMP280;48929;47.910;20.390;2023-04-06T02:34:33;99364.47;;;-2.61
62845;BMP280;48929;47.910;20.390;2023-04-06T02:37:02;99360.19;;;-2.60
62845;BMP280;48929;47.910;20.390;2023-04-06T02:39:32;99361.94;;;-2.61
62845;BMP280;48929;47.910;20.390;2023-04-06T02:42:04;99367.00;;;-2.61
62845;BMP280;48929;47.910;20.390;2023-04-06T02:44:33;99360.97;;;-2.60
62845;BMP280;48929;47.910;20.390;2023-04-06T02:47:03;99363.28;;;-2.58
62845;BMP280;48929;47.910;20.390;2023-04-06T02:49:32;99360.22;;;-2.54
62845;BMP280;48929;47.910;20.390;2023-04-06T02:52:04;99367.44;;;-2.51
62845;BMP280;48929;47.910;20.390;2023-04-06T02:54:36;99357.34;;;-2.51
62845;BMP280;48929;47.910;20.390;2023-04-06T02:57:04;99353.88;;;-2.50
62845;BMP280;48929;47.910;20.390;2023-04-06T02:59:35;99356.03;;;-2.47
62845;BMP280;48929;47.910;20.390;2023-04-06T03:02:09;99359.94;;;-2.44
62845;BMP280;48929;47.910;20.390;2023-04-06T03:04:41;99357.41;;;-2.44
62845;BMP280;48929;47.910;20.390;2023-04-06T03:07:10;99351.41;;;-2.43
62845;BMP280;48929;47.910;20.390;2023-04-06T03:09:39;99354.53;;;-2.41
62845;BMP280;48929;47.910;20.390;2023-04-06T03:12:12;99356.09;;;-2.40
62845;BMP280;48929;47.910;20.390;2023-04-06T03:14:41;99351.03;;;-2.40
62845;BMP280;48929;47.910;20.390;2023-04-06T03:17:11;99357.47;;;-2.38
62845;BMP280;48929;47.910;20.390;2023-04-06T03:19:40;99358.59;;;-2.40
62845;BMP280;48929;47.910;20.390;2023-04-06T03:22:09;99354.53;;;-2.41
62845;BMP280;48929;47.910;20.390;2023-04-06T03:24:38;99352.19;;;-2.43
62845;BMP280;48929;47.910;20.390;2023-04-06T03:27:07;99352.00;;;-2.41
62845;BMP280;48929;47.910;20.390;2023-04-06T03:29:40;99349.47;;;-2.41
62845;BMP280;48929;47.910;20.390;2023-04-06T03:32:08;99357.03;;;-2.41
62845;BMP280;48929;47.910;20.390;2023-04-06T03:34:39;99348.88;;;-2.43
62845;BMP280;48929;47.910;20.390;2023-04-06T03:37:08;99345.38;;;-2.42
62845;BMP280;48929;47.910;20.390;2023-04-06T03:39:37;99350.44;;;-2.42
62845;BMP280;48929;47.910;20.390;2023-04-06T03:42:06;99346.94;;;-2.41
62845;BMP280;48929;47.910;20.390;2023-04-06T03:44:35;99342.31;;;-2.38
62845;BMP280;48929;47.910;20.390;2023-04-06T03:47:04;99343.88;;;-2.37
62845;BMP280;48929;47.910;20.390;2023-04-06T03:49:33;99347.38;;;-2.38
62845;BMP280;48929;47.910;20.390;2023-04-06T03:52:06;99345.63;;;-2.37
62845;BMP280;48929;47.910;20.390;2023-04-06T03:54:35;99341.53;;;-2.38
62845;BMP280;48929;47.910;20.390;2023-04-06T03:57:04;99339.81;;;-2.38
62845;BMP280;48929;47.910;20.390;2023-04-06T03:59:33;99343.09;;;-2.37
62845;BMP280;48929;47.910;20.390;2023-04-06T04:02:02;99337.28;;;-2.38
62845;BMP280;48929;47.910;20.390;2023-04-06T04:04:31;99345.63;;;-2.37
62845;BMP280;48929;47.910;20.390;2023-04-06T04:07:03;99344.84;;;-2.38
62845;BMP280;48929;47.910;20.390;2023-04-06T04:09:35;99341.34;;;-2.37
62845;BMP280;48929;47.910;20.390;2023-04-06T04:12:04;99343.88;;;-2.37
62845;BMP280;48929;47.910;20.390;2023-04-06T04:14:32;99335.16;;;-2.34
62845;BMP280;48929;47.910;20.390;2023-04-06T04:17:01;99334.97;;;-2.33
62845;BMP280;48929;47.910;20.390;2023-04-06T04:19:30;99332.44;;;-2.33
62845;BMP280;48929;47.910;20.390;2023-04-06T04:21:59;99339.03;;;-2.31
62845;BMP280;48929;47.910;20.390;2023-04-06T04:24:31;99329.56;;;-2.29
62845;BMP280;48929;47.910;20.390;2023-04-06T04:27:01;99340.09;;;-2.26
62845;BMP280;48929;47.910;20.390;2023-04-06T04:29:32;99338.75;;;-2.22
62845;BMP280;48929;47.910;20.390;2023-04-06T04:32:01;99334.91;;;-2.18
62845;BMP280;48929;47.910;20.390;2023-04-06T04:34:30;99336.88;;;-2.13
62845;BMP280;48929;47.910;20.390;2023-04-06T04:37:00;99335.72;;;-2.11
62845;BMP280;48929;47.910;20.390;2023-04-06T04:39:29;99334.59;;;-2.08
62845;BMP280;48929;47.910;20.390;2023-04-06T04:41:59;99332.06;;;-2.02
62845;BMP280;48929;47.910;20.390;2023-04-06T04:44:30;99327.25;;;-1.96
62845;BMP280;48929;47.910;20.390;2023-04-06T04:46:59;99333.31;;;-1.91
62845;BMP280;48929;47.910;20.390;2023-04-06T04:49:28;99333.56;;;-1.86
62845;BMP280;48929;47.910;20.390;2023-04-06T04:51:57;99335.50;;;-1.81
62845;BMP280;48929;47.910;20.390;2023-04-06T04:54:27;99330.47;;;-1.75
62845;BMP280;48929;47.910;20.390;2023-04-06T04:56:55;99331.66;;;-1.71
62845;BMP280;48929;47.910;20.390;2023-04-06T04:59:24;99339.28;;;-1.64
62845;BMP280;48929;47.910;20.390;2023-04-06T05:01:55;99324.34;;;-1.59
62845;BMP280;48929;47.910;20.390;2023-04-06T05:04:24;99324.34;;;-1.52
62845;BMP280;48929;47.910;20.390;2023-04-06T05:07:03;99322.63;;;-1.45
62845;BMP280;48929;47.910;20.390;2023-04-06T05:09:33;99311.16;;;-1.41
62845;BMP280;48929;47.910;20.390;2023-04-06T05:12:03;99321.72;;;-1.31
62845;BMP280;48929;47.910;20.390;2023-04-06T05:14:32;99317.44;;;-1.24
62845;BMP280;48929;47.910;20.390;2023-04-06T05:17:03;99326.03;;;-1.12
62845;BMP280;48929;47.910;20.390;2023-04-06T05:19:33;99324.09;;;-1.03
62845;BMP280;48929;47.910;20.390;2023-04-06T05:22:03;99325.09;;;-0.91
62845;BMP280;48929;47.910;20.390;2023-04-06T05:24:32;99322.78;;;-0.79
62845;BMP280;48929;47.910;20.390;2023-04-06T05:27:02;99321.00;;;-0.65
62845;BMP280;48929;47.910;20.390;2023-04-06T05:29:33;99318.69;;;-0.54
62845;BMP280;48929;47.910;20.390;2023-04-06T05:32:04;99312.63;;;-0.40
62845;BMP280;48929;47.910;20.390;2023-04-06T05:34:33;99305.25;;;-0.28
62845;BMP280;48929;47.910;20.390;2023-04-06T05:37:05;99310.25;;;-0.15
62845;BMP280;48929;47.910;20.390;2023-04-06T05:39:33;99318.63;;;-0.01
62845;BMP280;48929;47.910;20.390;2023-04-06T05:42:04;99309.00;;;0.14
62845;BMP280;48929;47.910;20.390;2023-04-06T05:44:34;99302.91;;;0.28
62845;BMP280;48929;47.910;20.390;2023-04-06T05:47:05;99304.78;;;0.40
62845;BMP280;48929;47.910;20.390;2023-04-06T05:49:34;99299.44;;;0.54
62845;BMP280;48929;47.910;20.390;2023-04-06T05:52:02;99296.47;;;0.64
62845;BMP280;48929;47.910;20.390;2023-04-06T05:54:32;99305.00;;;0.76
62845;BMP280;48929;47.910;20.390;2023-04-06T05:57:02;99295.75;;;0.82
62845;BMP280;48929;47.910;20.390;2023-04-06T05:59:32;99297.84;;;0.91
62845;BMP280;48929;47.910;20.390;2023-04-06T06:02:00;99292.91;;;1.03
62845;BMP280;48929;47.910;20.390;2023-04-06T06:04:30;99293.63;;;1.10
62845;BMP280;48929;47.910;20.390;2023-04-06T06:06:59;99292.19;;;1.21
62845;BMP280;48929;47.910;20.390;2023-04-06T06:09:31;99293.81;;;1.33
62845;BMP280;48929;47.910;20.390;2023-04-06T06:12:00;99288.03;;;1.45
62845;BMP280;48929;47.910;20.390;2023-04-06T06:14:29;99281.72;;;1.54
62845;BMP280;48929;47.910;20.390;2023-04-06T06:16:58;99285.50;;;1.63
62845;BMP280;48929;47.910;20.390;2023-04-06T06:19:27;99272.91;;;1.75
62845;BMP280;48929;47.910;20.390;2023-04-06T06:21:58;99262.78;;;1.86
62845;BMP280;48929;47.910;20.390;2023-04-06T06:24:29;99267.13;;;1.97
62845;BMP280;48929;47.910;20.390;2023-04-06T06:27:02;99261.56;;;2.07
62845;BMP280;48929;47.910;20.390;2023-04-06T06:32:33;99251.47;;;2.30
62845;BMP280;48929;47.910;20.390;2023-04-06T06:35:01;99265.41;;;2.39
62845;BMP280;48929;47.910;20.390;2023-04-06T06:37:34;99258.03;;;2.50
62845;BMP280;48929;47.910;20.390;2023-04-06T06:40:04;99267.25;;;2.62
62845;BMP280;48929;47.910;20.390;2023-04-06T06:42:35;99262.25;;;2.67
62845;BMP280;48929;47.910;20.390;2023-04-06T06:45:06;99260.06;;;2.71
62845;BMP280;48929;47.910;20.390;2023-04-06T06:47:36;99269.59;;;2.75
62845;BMP280;48929;47.910;20.390;2023-04-06T06:50:06;99271.59;;;2.85
62845;BMP280;48929;47.910;20.390;2023-04-06T06:52:37;99261.94;;;2.99
62845;BMP280;48929;47.910;20.390;2023-04-06T06:55:07;99268.28;;;3.08
62845;BMP280;48929;47.910;20.390;2023-04-06T06:57:36;99260.63;;;3.20
62845;BMP280;48929;47.910;20.390;2023-04-06T07:00:06;99265.47;;;3.33
62845;BMP280;48929;47.910;20.390;2023-04-06T07:02:39;99266.03;;;3.46
62845;BMP280;48929;47.910;20.390;2023-04-06T07:05:09;99257.78;;;3.56
62845;BMP280;48929;47.910;20.390;2023-04-06T07:07:54;99254.34;;;3.62
62845;BMP280;48929;47.910;20.390;2023-04-06T07:10:28;99257.88;;;3.73
62845;BMP280;48929;47.910;20.390;2023-04-06T07:12:59;99241.44;;;3.80
62845;BMP280;48929;47.910;20.390;2023-04-06T07:15:34;99241.00;;;3.83
62845;BMP280;48929;47.910;20.390;2023-04-06T07:18:03;99255.38;;;3.90
62845;BMP280;48929;47.910;20.390;2023-04-06T07:20:32;99249.81;;;3.93
62845;BMP280;48929;47.910;20.390;2023-04-06T07:23:03;99252.19;;;3.99
62845;BMP280;48929;47.910;20.390;2023-04-06T07:25:32;99234.56;;;4.09
62845;BMP280;48929;47.910;20.390;2023-04-06T07:28:02;99250.94;;;4.13
62845;BMP280;48929;47.910;20.390;2023-04-06T07:30:30;99246.63;;;4.14
62845;BMP280;48929;47.910;20.390;2023-04-06T07:33:04;99239.09;;;4.07
62845;BMP280;48929;47.910;20.390;2023-04-06T07:35:35;99238.56;;;4.05
62845;BMP280;48929;47.910;20.390;2023-04-06T07:38:06;99237.09;;;4.09
62845;BMP280;48929;47.910;20.390;2023-04-06T07:40:35;99231.78;;;4.11
62845;BMP280;48929;47.910;20.390;2023-04-06T07:43:04;99226.44;;;4.12
62845;BMP280;48929;47.910;20.390;2023-04-06T07:45:33;99224.56;;;4.08
62845;BMP280;48929;47.910;20.390;2023-04-06T07:48:02;99233.00;;;4.08
62845;BMP280;48929;47.910;20.390;2023-04-06T07:50:34;99226.59;;;4.06
62845;BMP280;48929;47.910;20.390;2023-04-06T07:53:03;99223.72;;;4.02
62845;BMP280;48929;47.910;20.390;2023-04-06T07:55:34;99220.38;;;4.02
62845;BMP280;48929;47.910;20.390;2023-04-06T07:58:03;99227.47;;;4.00
62845;BMP280;48929;47.910;20.390;2023-04-06T08:00:32;99227.47;;;4.00
62845;BMP280;48929;47.910;20.390;2023-04-06T08:03:01;99224.72;;;4.01
62845;BMP280;48929;47.910;20.390;2023-04-06T08:05:41;99227.47;;;4.00
62845;BMP280;48929;47.910;20.390;2023-04-06T08:08:18;99237.63;;;3.95
62845;BMP280;48929;47.910;20.390;2023-04-06T08:10:49;99251.03;;;3.90
62845;BMP280;48929;47.910;20.390;2023-04-06T08:13:19;99254.59;;;3.89
62845;BMP280;48929;47.910;20.390;2023-04-06T08:15:48;99252.59;;;3.91
62845;BMP280;48929;47.910;20.390;2023-04-06T08:18:18;99254.34;;;3.91
62845;BMP280;48929;47.910;20.390;2023-04-06T08:20:47;99267.81;;;3.86
62845;BMP280;48929;47.910;20.390;2023-04-06T08:23:17;99263.97;;;3.72
62845;BMP280;48929;47.910;20.390;2023-04-06T08:25:45;99273.75;;;3.63
62845;BMP280;48929;47.910;20.390;2023-04-06T08:28:16;99276.66;;;3.43
62845;BMP280;48929;47.910;20.390;2023-04-06T08:30:45;99267.81;;;3.34
62845;BMP280;48929;47.910;20.390;2023-04-06T08:33:14;99276.44;;;3.33
62845;BMP280;48929;47.910;20.390;2023-04-06T08:35:43;99274.25;;;3.37
62845;BMP280;48929;47.910;20.390;2023-04-06T08:38:12;99274.19;;;3.48
62845;BMP280;48929;47.910;20.390;2023-04-06T08:40:41;99285.94;;;3.49
62845;BMP280;48929;47.910;20.390;2023-04-06T08:43:13;99285.28;;;3.42
62845;BMP280;48929;47.910;20.390;2023-04-06T08:45:44;99290.19;;;3.32
62845;BMP280;48929;47.910;20.390;2023-04-06T08:48:14;99289.84;;;3.17
62845;BMP280;48929;47.910;20.390;2023-04-06T08:50:43;99298.78;;;2.96
62845;BMP280;48929;47.910;20.390;2023-04-06T08:53:13;99296.56;;;2.76
62845;BMP280;48929;47.910;20.390;2023-04-06T08:55:43;99303.06;;;2.61
62845;BMP280;48929;47.910;20.390;2023-04-06T08:58:16;99307.09;;;2.38
62845;BMP280;48929;47.910;20.390;2023-04-06T09:01:06;99298.13;;;2.36
62845;BMP280;48929;47.910;20.390;2023-04-06T09:03:42;99307.09;;;2.38
62845;BMP280;48929;47.910;20.390;2023-04-06T09:06:13;99306.44;;;2.43
62845;BMP280;48929;47.910;20.390;2023-04-06T09:08:42;99303.47;;;2.46
62845;BMP280;48929;47.910;20.390;2023-04-06T09:11:11;99312.66;;;2.47
62845;BMP280;48929;47.910;20.390;2023-04-06T09:13:47;99311.53;;;2.43
62845;BMP280;48929;47.910;20.390;2023-04-06T09:16:19;99304.75;;;2.37
62845;BMP280;48929;47.910;20.390;2023-04-06T09:18:49;99303.41;;;2.34
62845;BMP280;48929;47.910;20.390;2023-04-06T09:21:19;99300.44;;;2.37
62845;BMP280;48929;47.910;20.390;2023-04-06T09:23:59;99301.91;;;2.45
62845;BMP280;48929;47.910;20.390;2023-04-06T09:26:29;99295.69;;;2.59
62845;BMP280;48929;47.910;20.390;2023-04-06T09:29:01;99297.34;;;2.77
62845;BMP280;48929;47.910;20.390;2023-04-06T09:31:32;99293.59;;;2.79
62845;BMP280;48929;47.910;20.390;2023-04-06T09:34:03;99292.84;;;2.91
62845;BMP280;48929;47.910;20.390;2023-04-06T09:36:34;99289.94;;;2.99
62845;BMP280;48929;47.910;20.390;2023-04-06T09:39:03;99289.09;;;3.05
62845;BMP280;48929;47.910;20.390;2023-04-06T09:41:34;99291.41;;;3.06
62845;BMP280;48929;47.910;20.390;2023-04-06T09:44:04;99291.53;;;3.11
62845;BMP280;48929;47.910;20.390;2023-04-06T09:46:36;99283.91;;;3.11
62845;BMP280;48929;47.910;20.390;2023-04-06T09:49:26;99281.66;;;3.15
62845;BMP280;48929;47.910;20.390;2023-04-06T09:51:58;99281.66;;;3.15
62845;BMP280;48929;47.910;20.390;2023-04-06T09:54:28;99278.69;;;3.06
62845;BMP280;48929;47.910;20.390;2023-04-06T09:57:03;99284.41;;;2.90
62845;BMP280;48929;47.910;20.390;2023-04-06T09:59:40;99293.69;;;2.73
62845;BMP280;48929;47.910;20.390;2023-04-06T10:02:20;99285.94;;;2.68
62845;BMP280;48929;47.910;20.390;2023-04-06T10:04:54;99294.44;;;2.62
62845;BMP280;48929;47.910;20.390;2023-04-06T10:07:25;99282.28;;;2.52
62845;BMP280;48929;47.910;20.390;2023-04-06T10:09:55;99293.09;;;2.48
62845;BMP280;48929;47.910;20.390;2023-04-06T10:12:24;99287.66;;;2.44
62845;BMP280;48929;47.910;20.390;2023-04-06T10:14:53;99279.38;;;2.49
62845;BMP280;48929;47.910;20.390;2023-04-06T10:17:27;99284.72;;;2.59
62845;BMP280;48929;47.910;20.390;2023-04-06T10:20:01;99272.44;;;2.67
62845;BMP280;48929;47.910;20.390;2023-04-06T10:22:36;99276.34;;;2.82
62845;BMP280;48929;47.910;20.390;2023-04-06T10:25:08;99277.34;;;2.81
62845;BMP280;48929;47.910;20.390;2023-04-06T10:27:37;99273.25;;;2.79
62845;BMP280;48929;47.910;20.390;2023-04-06T10:30:06;99267.28;;;2.86
62845;BMP280;48929;47.910;20.390;2023-04-06T10:32:39;99278.34;;;2.91
62845;BMP280;48929;47.910;20.390;2023-04-06T10:35:13;99262.06;;;2.92
62845;BMP280;48929;47.910;20.390;2023-04-06T10:37:51;99257.63;;;2.88
62845;BMP280;48929;47.910;20.390;2023-04-06T10:40:22;99259.19;;;2.89
62845;BMP280;48929;47.910;20.390;2023-04-06T10:42:55;99255.31;;;2.86
62845;BMP280;48929;47.910;20.390;2023-04-06T10:45:25;99254.44;;;2.92
62845;BMP280;48929;47.910;20.390;2023-04-06T10:47:56;99252.41;;;2.94
62845;BMP280;48929;47.910;20.390;2023-04-06T10:50:25;99254.66;;;2.91
62845;BMP280;48929;47.910;20.390;2023-04-06T10:53:01;99250.22;;;2.86
62845;BMP280;48929;47.910;20.390;2023-04-06T10:55:30;99252.13;;;2.79
62845;BMP280;48929;47.910;20.390;2023-04-06T10:57:59;99244.34;;;2.74
62845;BMP280;48929;47.910;20.390;2023-04-06T11:00:30;99249.88;;;2.71
62845;BMP280;48929;47.910;20.390;2023-04-06T11:03:18;99247.13;;;2.72
62845;BMP280;48929;47.910;20.390;2023-04-06T11:05:48;99244.56;;;2.72
62845;BMP280;48929;47.910;20.390;2023-04-06T11:08:29;99244.03;;;2.82
62845;BMP280;48929;47.910;20.390;2023-04-06T11:11:05;99253.88;;;2.90
62845;BMP280;48929;47.910;20.390;2023-04-06T11:13:39;99250.66;;;2.95
62845;BMP280;48929;47.910;20.390;2023-04-06T11:16:13;99242.94;;;2.90
62845;BMP280;48929;47.910;20.390;2023-04-06T11:18:57;99248.34;;;2.93
62845;BMP280;48929;47.910;20.390;2023-04-06T11:21:34;99243.03;;;3.06
62845;BMP280;48929;47.910;20.390;2023-04-06T11:24:08;99244.91;;;3.23
62845;BMP280;48929;47.910;20.390;2023-04-06T11:26:38;99252.09;;;3.26
62845;BMP280;48929;47.910;20.390;2023-04-06T11:29:10;99250.09;;;3.28
62845;BMP280;48929;47.910;20.390;2023-04-06T11:31:42;99242.47;;;3.16
62845;BMP280;48929;47.910;20.390;2023-04-06T11:34:16;99246.69;;;3.10
62845;BMP280;48929;47.910;20.390;2023-04-06T11:36:49;99245.59;;;3.06
62845;BMP280;48929;47.910;20.390;2023-04-06T11:39:25;99236.19;;;3.07
62845;BMP280;48929;47.910;20.390;2023-04-06T11:41:57;99240.50;;;3.06
62845;BMP280;48929;47.910;20.390;2023-04-06T11:44:34;99241.72;;;3.04
62845;BMP280;48929;47.910;20.390;2023-04-06T11:47:04;99243.03;;;3.06
62845;BMP280;48929;47.910;20.390;2023-04-06T11:49:40;99237.06;;;3.01
62845;BMP280;48929;47.910;20.390;2023-04-06T11:52:15;99231.84;;;2.96
62845;BMP280;48929;47.910;20.390;2023-04-06T11:54:45;99238.69;;;2.95
62845;BMP280;48929;47.910;20.390;2023-04-06T11:57:17;99234.84;;;3.04
62845;BMP280;48929;47.910;20.390;2023-04-06T11:59:46;99229.66;;;3.11
62845;BMP280;48929;47.910;20.390;2023-04-06T12:02:15;99230.97;;;3.13
62845;BMP280;48929;47.910;20.390;2023-04-06T12:04:48;99229.75;;;3.16
62845;BMP280;48929;47.910;20.390;2023-04-06T12:07:18;99227.63;;;3.25
62845;BMP280;48929;47.910;20.390;2023-04-06T12:09:47;99224.72;;;3.44
62845;BMP280;48929;47.910;20.390;2023-04-06T12:12:16;99230.44;;;3.63
62845;BMP280;48929;47.910;20.390;2023-04-06T12:14:45;99223.88;;;3.67
62845;BMP280;48929;47.910;20.390;2023-04-06T12:17:14;99218.34;;;3.59
62845;BMP280;48929;47.910;20.390;2023-04-06T12:19:43;99210.59;;;3.54
62845;BMP280;48929;47.910;20.390;2023-04-06T12:22:14;99210.06;;;3.51
62845;BMP280;48929;47.910;20.390;2023-04-06T12:24:44;99212.31;;;3.48
62845;BMP280;48929;47.910;20.390;2023-04-06T12:27:13;99216.50;;;3.42
62845;BMP280;48929;47.910;20.390;2023-04-06T12:29:42;99217.44;;;3.36
62845;BMP280;48929;47.910;20.390;2023-04-06T12:32:11;99215.19;;;3.40
62845;BMP280;48929;47.910;20.390;2023-04-06T12:34:43;99211.53;;;3.47
62845;BMP280;48929;47.910;20.390;2023-04-06T12:37:13;99207.41;;;3.58
62845;BMP280;48929;47.910;20.390;2023-04-06T12:39:44;99208.91;;;3.71
62845;BMP280;48929;47.910;20.390;2023-04-06T12:42:14;99213.28;;;3.75
62845;BMP280;48929;47.910;20.390;2023-04-06T12:44:44;99202.81;;;3.72
62845;BMP280;48929;47.910;20.390;2023-04-06T12:47:14;99205.66;;;3.75
62845;BMP280;48929;47.910;20.390;2023-04-06T12:49:46;99208.69;;;3.72
62845;BMP280;48929;47.910;20.390;2023-04-06T12:52:17;99198.59;;;3.66
62845;BMP280;48929;47.910;20.390;2023-04-06T12:54:47;99203.16;;;3.64
62845;BMP280;48929;47.910;20.390;2023-04-06T12:57:17;99202.63;;;3.62
62845;BMP280;48929;47.910;20.390;2023-04-06T12:59:48;99198.97;;;3.58
62845;BMP280;48929;47.910;20.390;2023-04-06T13:02:18;99198.78;;;3.47
62845;BMP280;48929;47.910;20.390;2023-04-06T13:04:51;99200.91;;;3.39
62845;BMP280;48929;47.910;20.390;2023-04-06T13:07:22;99210.69;;;3.30
62845;BMP280;48929;47.910;20.390;2023-04-06T13:09:51;99211.13;;;3.15
62845;BMP280;48929;47.910;20.390;2023-04-06T13:12:25;99201.31;;;3.07
62845;BMP280;48929;47.910;20.390;2023-04-06T13:14:55;99205.84;;;3.05
62845;BMP280;48929;47.910;20.390;2023-04-06T13:17:27;99197.22;;;3.06
62845;BMP280;48929;47.910;20.390;2023-04-06T13:19:55;99195.53;;;3.12
62845;BMP280;48929;47.910;20.390;2023-04-06T13:22:26;99198.41;;;3.15
62845;BMP280;48929;47.910;20.390;2023-04-06T13:24:55;99195.75;;;3.22
62845;BMP280;48929;47.910;20.390;2023-04-06T13:27:24;99197.72;;;3.32
62845;BMP280;48929;47.910;20.390;2023-04-06T13:29:55;99198.59;;;3.37
62845;BMP280;48929;47.910;20.390;2023-04-06T13:32:24;99199.69;;;3.41
62845;BMP280;48929;47.910;20.390;2023-04-06T13:34:54;99195.81;;;3.39
62845;BMP280;48929;47.910;20.390;2023-04-06T13:37:23;99198.03;;;3.47
62845;BMP280;48929;47.910;20.390;2023-04-06T13:39:54;99197.47;;;3.45
62845;BMP280;48929;47.910;20.390;2023-04-06T13:42:23;99195.38;;;3.42
62845;BMP280;48929;47.910;20.390;2023-04-06T13:44:52;99200.78;;;3.45
62845;BMP280;48929;47.910;20.390;2023-04-06T13:47:20;99194.38;;;3.43
62845;BMP280;48929;47.910;20.390;2023-04-06T13:49:50;99194.25;;;3.38
62845;BMP280;48929;47.910;20.390;2023-04-06T13:52:20;99190.19;;;3.37
62845;BMP280;48929;47.910;20.390;2023-04-06T13:54:48;99194.72;;;3.35
62845;BMP280;48929;47.910;20.390;2023-04-06T13:57:19;99194.94;;;3.33
62845;BMP280;48929;47.910;20.390;2023-04-06T13:59:48;99192.97;;;3.35
62845;BMP280;48929;47.910;20.390;2023-04-06T14:02:21;99196.06;;;3.37
62845;BMP280;48929;47.910;20.390;2023-04-06T14:04:54;99191.19;;;3.36
62845;BMP280;48929;47.910;20.390;2023-04-06T14:07:23;99190.53;;;3.29
62845;BMP280;48929;47.910;20.390;2023-04-06T14:09:52;99194.00;;;3.23
62845;BMP280;48929;47.910;20.390;2023-04-06T14:12:23;99191.31;;;3.18
62845;BMP280;48929;47.910;20.390;2023-04-06T14:14:53;99194.53;;;3.13
62845;BMP280;48929;47.910;20.390;2023-04-06T14:17:22;99187.38;;;3.10
62845;BMP280;48929;47.910;20.390;2023-04-06T14:19:52;99189.03;;;3.04
62845;BMP280;48929;47.910;20.390;2023-04-06T14:22:20;99187.56;;;2.97
62845;BMP280;48929;47.910;20.390;2023-04-06T14:24:49;99196.91;;;2.91
62845;BMP280;48929;47.910;20.390;2023-04-06T14:27:18;99191.47;;;2.88